Udell, Iowa
Current Conditions -  °F | °C
As of 7:10 AM on Monday 22 Dec 2014 (Local Time) from KTVK Reporting Station
Overcast Overcast  
Wind Chill: 30°   Ceiling: 1700
Heat Index: 37°   Visibility: 10mi
Dew Point: 37°   Wind: 10mph
Humidity: 100%   Direction: 120°ESE
Pressure: 29.69"   Gusts: NA
Location:  40.78°N, 92.74°W
Report Text: KTVK 221310Z AUTO 12009KT 10SM OVC017 03/03 A2969 RMK AO2
Loading
Personal Weather Stations






























Interactive Weather Map New forecast layout! Learn more

10-Day Weather Forecast

Advertisements
Track Severe Weather on mobile